createdAt,value
2023-01-29T00:00:16.395Z,66.83
2023-01-29T00:02:44.810Z,66.78
2023-01-29T00:05:27.007Z,66.70
2023-01-29T00:07:56.481Z,66.74
2023-01-29T00:10:25.363Z,66.83
2023-01-29T00:12:54.005Z,66.87
2023-01-29T00:15:22.106Z,66.88
2023-01-29T00:17:50.580Z,66.97
2023-01-29T00:20:19.282Z,66.93
2023-01-29T00:22:47.809Z,66.96
2023-01-29T00:25:16.082Z,66.97
2023-01-29T00:27:44.823Z,67.13
2023-01-29T00:30:13.364Z,67.15
2023-01-29T00:32:41.672Z,67.23
2023-01-29T00:35:10.030Z,67.30
2023-01-29T00:37:38.426Z,67.23
2023-01-29T00:40:07.524Z,67.27
2023-01-29T00:42:55.098Z,67.37
2023-01-29T00:45:23.699Z,67.30
2023-01-29T00:47:52.089Z,67.45
2023-01-29T00:50:20.560Z,67.51
2023-01-29T00:52:51.880Z,67.60
2023-01-29T00:55:20.072Z,67.62
2023-01-29T00:57:48.380Z,67.63
2023-01-29T01:00:18.647Z,67.67
2023-01-29T01:03:05.959Z,67.90
2023-01-29T01:05:35.316Z,68.03
2023-01-29T01:08:25.024Z,68.02
2023-01-29T01:11:02.091Z,68.04
2023-01-29T01:13:32.197Z,68.10
2023-01-29T01:16:00.475Z,68.20
2023-01-29T01:18:32.023Z,68.25
2023-01-29T01:21:00.311Z,68.20
2023-01-29T01:23:28.538Z,68.25
2023-01-29T01:25:56.792Z,68.24
2023-01-29T01:28:24.907Z,68.17
2023-01-29T01:30:53.191Z,68.14
2023-01-29T01:33:21.465Z,68.09
2023-01-29T01:35:49.761Z,68.24
2023-01-29T01:38:19.813Z,68.24
2023-01-29T01:40:47.887Z,68.06
2023-01-29T01:43:16.102Z,67.93
2023-01-29T01:45:46.743Z,68.01
2023-01-29T01:48:19.634Z,68.14
2023-01-29T01:50:56.892Z,67.91
2023-01-29T01:53:34.727Z,68.16
2023-01-29T01:56:07.962Z,68.06
2023-01-29T01:58:40.282Z,68.17
2023-01-29T02:01:08.575Z,68.09
2023-01-29T02:04:06.361Z,67.94
2023-01-29T02:06:53.960Z,67.89
2023-01-29T02:09:36.161Z,68.04
2023-01-29T02:12:07.585Z,67.91
2023-01-29T02:14:39.061Z,67.91
2023-01-29T02:17:08.550Z,67.99
2023-01-29T02:19:47.193Z,67.91
2023-01-29T02:22:43.784Z,67.92
2023-01-29T02:25:24.604Z,68.00
2023-01-29T02:28:15.464Z,68.10
2023-01-29T02:31:04.966Z,68.21
2023-01-29T02:33:47.267Z,68.12
2023-01-29T02:36:38.999Z,68.17
2023-01-29T02:39:07.088Z,67.90
2023-01-29T02:41:39.908Z,68.03
2023-01-29T02:44:31.292Z,67.95
2023-01-29T02:47:09.502Z,68.03
2023-01-29T02:49:49.940Z,67.89
2023-01-29T02:53:06.518Z,67.96
2023-01-29T02:55:58.217Z,67.98
2023-01-29T02:58:33.353Z,67.89
2023-01-29T03:01:10.064Z,67.89
2023-01-29T03:03:43.144Z,67.93
2023-01-29T03:06:22.475Z,67.81
2023-01-29T03:08:54.408Z,67.72
2023-01-29T03:11:22.865Z,67.72
2023-01-29T03:14:04.777Z,67.80
2023-01-29T03:16:40.844Z,67.64
2023-01-29T03:19:11.025Z,67.79
2023-01-29T03:21:59.195Z,67.68
2023-01-29T03:24:48.362Z,67.61
2023-01-29T03:27:37.053Z,67.72
2023-01-29T03:30:25.037Z,67.74
2023-01-29T03:32:58.955Z,67.66
2023-01-29T03:35:37.567Z,67.68
2023-01-29T03:38:10.025Z,67.72
2023-01-29T03:40:49.485Z,67.80
2023-01-29T03:43:50.204Z,67.83
2023-01-29T03:46:24.739Z,67.79
2023-01-29T03:48:52.957Z,67.91
2023-01-29T03:51:29.205Z,67.74
2023-01-29T03:54:26.541Z,67.93
2023-01-29T03:57:17.618Z,67.78
2023-01-29T03:59:52.052Z,67.99
2023-01-29T04:02:52.364Z,68.06
2023-01-29T04:05:23.246Z,68.16
2023-01-29T04:08:11.321Z,68.07
2023-01-29T04:10:39.436Z,68.31
2023-01-29T04:13:10.887Z,68.18
2023-01-29T04:15:48.158Z,68.02
2023-01-29T04:18:16.326Z,68.02
2023-01-29T04:21:22.853Z,67.98
2023-01-29T04:23:51.141Z,68.06
2023-01-29T04:26:28.381Z,67.88
2023-01-29T04:29:00.009Z,67.75
2023-01-29T04:31:31.434Z,67.74
2023-01-29T04:34:18.065Z,67.84
2023-01-29T04:37:27.657Z,67.72
2023-01-29T04:40:02.280Z,67.62
2023-01-29T04:42:42.539Z,67.61
2023-01-29T04:45:19.060Z,67.64
2023-01-29T04:47:50.082Z,67.29
2023-01-29T04:50:23.355Z,67.39
2023-01-29T04:53:13.021Z,67.27
2023-01-29T04:55:44.447Z,67.32
2023-01-29T04:58:18.607Z,67.34
2023-01-29T05:00:47.844Z,67.19
2023-01-29T05:03:16.330Z,67.31
2023-01-29T05:05:46.465Z,67.25
2023-01-29T05:08:17.139Z,67.15
2023-01-29T05:10:46.897Z,67.35
2023-01-29T05:13:15.102Z,67.33
2023-01-29T05:15:57.118Z,67.30
2023-01-29T05:18:25.448Z,67.38
2023-01-29T05:20:54.513Z,67.26
2023-01-29T05:23:22.712Z,67.25
2023-01-29T05:25:51.923Z,67.18
2023-01-29T05:28:21.058Z,67.10
2023-01-29T05:30:53.668Z,67.16
2023-01-29T05:33:26.936Z,67.17
2023-01-29T05:35:55.703Z,67.14
2023-01-29T05:38:24.003Z,67.28
2023-01-29T05:40:52.175Z,67.28
2023-01-29T05:43:26.033Z,67.23
2023-01-29T05:45:55.593Z,67.43
2023-01-29T05:48:23.995Z,67.42
2023-01-29T05:51:00.166Z,67.27
2023-01-29T05:53:30.478Z,67.24
2023-01-29T05:56:01.338Z,67.27
2023-01-29T05:58:41.067Z,67.43
2023-01-29T06:01:20.220Z,67.47
2023-01-29T06:03:50.738Z,67.42
2023-01-29T06:06:22.789Z,67.64
2023-01-29T06:08:56.448Z,67.69
2023-01-29T06:11:24.854Z,67.75
2023-01-29T06:13:53.921Z,67.78
2023-01-29T06:16:24.675Z,67.84
2023-01-29T06:18:54.502Z,67.73
2023-01-29T06:21:23.317Z,67.69
2023-01-29T06:23:56.842Z,67.68
2023-01-29T06:26:26.755Z,67.85
2023-01-29T06:28:54.988Z,67.70
2023-01-29T06:31:37.204Z,67.57
2023-01-29T06:34:08.184Z,67.57
2023-01-29T06:36:36.461Z,67.38
2023-01-29T06:39:05.051Z,67.27
2023-01-29T06:41:35.700Z,67.18
2023-01-29T06:44:04.117Z,67.01
2023-01-29T06:46:36.025Z,66.98
2023-01-29T06:49:08.383Z,66.74
2023-01-29T06:51:37.369Z,66.75
2023-01-29T06:54:08.779Z,66.54
2023-01-29T06:56:37.355Z,66.53
2023-01-29T06:59:07.498Z,66.33
2023-01-29T07:01:44.634Z,66.31
2023-01-29T07:04:12.946Z,66.14
2023-01-29T07:06:41.852Z,66.12
2023-01-29T07:09:16.368Z,66.08
2023-01-29T07:11:45.324Z,65.88
2023-01-29T07:14:14.263Z,65.88
2023-01-29T07:16:42.916Z,65.99
2023-01-29T07:19:11.151Z,65.86
2023-01-29T07:21:39.215Z,65.77
2023-01-29T07:24:07.540Z,65.74
2023-01-29T07:26:36.043Z,65.66
2023-01-29T07:29:05.262Z,65.47
2023-01-29T07:31:33.547Z,65.51
2023-01-29T07:34:01.847Z,65.53
2023-01-29T07:36:30.907Z,65.60
2023-01-29T07:38:59.113Z,65.65
2023-01-29T07:41:27.320Z,65.46
2023-01-29T07:43:56.436Z,65.60
2023-01-29T07:46:24.674Z,65.56
2023-01-29T07:48:56.453Z,65.44
2023-01-29T07:51:24.615Z,65.56
2023-01-29T07:53:53.518Z,65.53
2023-01-29T07:56:23.261Z,65.63
2023-01-29T07:58:51.334Z,65.53
2023-01-29T08:01:19.499Z,65.34
2023-01-29T08:03:48.948Z,65.45
2023-01-29T08:06:19.748Z,65.38
2023-01-29T08:08:48.276Z,65.28
2023-01-29T08:11:17.777Z,65.34
2023-01-29T08:13:46.800Z,65.23
2023-01-29T08:16:15.464Z,65.13
2023-01-29T08:18:49.880Z,65.14
2023-01-29T08:21:18.111Z,65.29
2023-01-29T08:23:46.236Z,65.23
2023-01-29T08:26:14.315Z,65.18
2023-01-29T08:28:43.090Z,65.09
2023-01-29T08:31:17.708Z,65.14
2023-01-29T08:33:50.928Z,64.99
2023-01-29T08:36:22.231Z,65.04
2023-01-29T08:38:50.365Z,64.97
2023-01-29T08:41:22.891Z,64.99
2023-01-29T08:43:53.527Z,65.03
2023-01-29T08:46:21.839Z,65.01
2023-01-29T08:48:50.068Z,65.08
2023-01-29T08:51:18.815Z,64.96
2023-01-29T08:53:50.029Z,64.91
2023-01-29T08:56:19.063Z,64.93
2023-01-29T08:58:47.403Z,64.88
2023-01-29T09:01:15.796Z,64.72
2023-01-29T09:03:44.825Z,64.75
2023-01-29T09:06:13.651Z,64.65
2023-01-29T09:08:43.646Z,64.59
2023-01-29T09:11:14.501Z,64.77
2023-01-29T09:13:42.750Z,64.83
2023-01-29T09:16:11.164Z,64.76
2023-01-29T09:18:41.666Z,64.89
2023-01-29T09:21:13.210Z,64.87
2023-01-29T09:23:47.484Z,64.87
2023-01-29T09:26:15.687Z,64.85
2023-01-29T09:28:44.020Z,64.73
2023-01-29T09:31:12.310Z,64.71
2023-01-29T09:33:43.430Z,64.73
2023-01-29T09:36:11.495Z,64.80
2023-01-29T09:38:39.784Z,64.71
2023-01-29T09:41:20.942Z,64.59
2023-01-29T09:43:52.813Z,64.68
2023-01-29T09:46:38.754Z,64.71
2023-01-29T09:49:12.827Z,64.56
2023-01-29T09:51:42.124Z,64.55
2023-01-29T09:54:48.915Z,64.41
2023-01-29T09:57:27.879Z,64.29
2023-01-29T09:59:56.041Z,63.98
2023-01-29T10:02:51.825Z,63.99
2023-01-29T10:05:28.667Z,63.66
2023-01-29T10:08:09.295Z,63.58
2023-01-29T10:11:09.882Z,63.42
2023-01-29T10:13:45.508Z,63.23
2023-01-29T10:16:55.847Z,63.11
2023-01-29T10:19:55.845Z,63.02
2023-01-29T10:22:48.877Z,63.24
2023-01-29T10:25:25.489Z,63.35
2023-01-29T10:28:00.620Z,63.25
2023-01-29T10:30:37.440Z,63.29
2023-01-29T10:33:07.690Z,63.30
2023-01-29T10:36:03.541Z,63.44
2023-01-29T10:38:40.436Z,63.57
2023-01-29T10:41:19.780Z,63.58
2023-01-29T10:44:00.729Z,63.58
2023-01-29T10:46:47.302Z,63.77
2023-01-29T10:49:42.207Z,63.63
2023-01-29T10:52:26.414Z,63.74
2023-01-29T10:55:25.044Z,63.73
2023-01-29T10:58:00.635Z,63.68
2023-01-29T11:00:38.660Z,63.60
2023-01-29T11:03:27.959Z,63.64
2023-01-29T11:06:12.027Z,63.48
2023-01-29T11:09:19.629Z,63.53
2023-01-29T11:12:03.688Z,63.53
2023-01-29T11:14:47.810Z,63.38
2023-01-29T11:17:17.950Z,63.35
2023-01-29T11:19:47.858Z,63.36
2023-01-29T11:22:37.171Z,63.36
2023-01-29T11:25:10.590Z,63.20
2023-01-29T11:27:45.040Z,63.00
2023-01-29T11:30:32.262Z,62.93
2023-01-29T11:33:24.424Z,63.06
2023-01-29T11:35:57.771Z,63.09
2023-01-29T11:38:27.321Z,63.14
2023-01-29T11:41:22.370Z,63.17
2023-01-29T11:43:53.235Z,63.10
2023-01-29T11:46:21.488Z,63.20
2023-01-29T11:48:51.723Z,63.02
2023-01-29T11:51:25.217Z,62.87
2023-01-29T11:53:57.560Z,62.77
2023-01-29T11:56:35.053Z,62.73
2023-01-29T11:59:06.187Z,62.56
2023-01-29T12:01:37.004Z,62.37
2023-01-29T12:04:18.948Z,62.23
2023-01-29T12:06:49.197Z,62.19
2023-01-29T12:09:29.862Z,61.90
2023-01-29T12:12:16.540Z,61.95
2023-01-29T12:14:44.734Z,62.01
2023-01-29T12:17:18.227Z,61.99
2023-01-29T12:19:55.575Z,62.06
2023-01-29T12:23:06.751Z,61.98
2023-01-29T12:25:40.524Z,62.05
2023-01-29T12:28:42.919Z,62.15
2023-01-29T12:31:43.000Z,62.10
2023-01-29T12:34:54.829Z,62.14
2023-01-29T12:37:43.915Z,62.01
2023-01-29T12:40:21.035Z,61.97
2023-01-29T12:43:01.949Z,61.88
2023-01-29T12:45:33.495Z,61.84
2023-01-29T12:48:08.828Z,61.70
2023-01-29T12:50:48.718Z,61.55
2023-01-29T12:53:36.256Z,61.54
2023-01-29T12:56:28.472Z,61.39
2023-01-29T12:58:56.868Z,61.35
2023-01-29T13:01:31.524Z,61.30
2023-01-29T13:04:13.804Z,61.36
2023-01-29T13:06:48.399Z,61.34
2023-01-29T13:09:27.080Z,61.28
2023-01-29T13:12:07.910Z,61.35
2023-01-29T13:14:41.599Z,61.22
2023-01-29T13:17:14.421Z,61.16
2023-01-29T13:19:50.812Z,61.22
2023-01-29T13:22:26.600Z,61.08
2023-01-29T13:25:04.309Z,60.97
2023-01-29T13:27:34.613Z,60.79
2023-01-29T13:30:03.418Z,60.83
2023-01-29T13:32:33.147Z,60.85
2023-01-29T13:35:03.804Z,60.82
2023-01-29T13:37:46.350Z,60.94
2023-01-29T13:40:29.379Z,60.89
2023-01-29T13:43:00.359Z,61.01
2023-01-29T13:45:42.123Z,61.07
2023-01-29T13:48:29.099Z,61.26
2023-01-29T13:50:57.836Z,61.38
2023-01-29T13:53:29.270Z,61.47
2023-01-29T13:56:21.049Z,61.50
2023-01-29T13:58:55.434Z,61.52
2023-01-29T14:01:42.499Z,61.47
2023-01-29T14:04:21.932Z,61.27
2023-01-29T14:06:52.050Z,61.21
2023-01-29T14:09:36.723Z,61.29
2023-01-29T14:12:32.188Z,61.29
2023-01-29T14:15:04.466Z,61.11
2023-01-29T14:17:33.335Z,61.14
2023-01-29T14:20:04.177Z,61.16
2023-01-29T14:22:33.947Z,61.24
2023-01-29T14:25:04.891Z,61.30
2023-01-29T14:27:33.529Z,61.25
2023-01-29T14:30:03.890Z,61.33
2023-01-29T14:32:32.507Z,61.22
2023-01-29T14:35:05.527Z,61.12
2023-01-29T14:37:38.938Z,61.20
2023-01-29T14:40:20.799Z,61.05
2023-01-29T14:43:02.041Z,60.96
2023-01-29T14:45:39.025Z,60.96
2023-01-29T14:48:10.077Z,60.86
2023-01-29T14:50:41.193Z,60.95
2023-01-29T14:53:23.435Z,61.01
2023-01-29T14:56:10.536Z,60.91
2023-01-29T14:58:46.113Z,61.03
2023-01-29T15:01:23.680Z,61.14
2023-01-29T15:04:04.292Z,61.01
2023-01-29T15:06:34.917Z,61.10
2023-01-29T15:09:36.460Z,61.09
2023-01-29T15:12:33.679Z,61.17
2023-01-29T15:15:27.458Z,61.21
2023-01-29T15:18:06.278Z,61.31
2023-01-29T15:20:44.598Z,61.37
2023-01-29T15:23:29.553Z,61.42
2023-01-29T15:26:01.839Z,61.51
2023-01-29T15:28:31.784Z,61.49
2023-01-29T15:31:01.603Z,61.52
2023-01-29T15:36:23.233Z,61.46
2023-01-29T15:39:09.944Z,61.49
2023-01-29T15:41:38.564Z,61.38
2023-01-29T15:44:14.231Z,61.33
2023-01-29T15:46:53.974Z,61.20
2023-01-29T15:49:32.910Z,61.13
2023-01-29T15:52:05.881Z,61.18
2023-01-29T15:54:36.654Z,61.15
2023-01-29T15:57:05.624Z,61.12
2023-01-29T15:59:40.564Z,61.28
2023-01-29T16:02:40.591Z,61.34
2023-01-29T16:05:18.415Z,61.26
2023-01-29T16:07:50.926Z,61.30
2023-01-29T16:10:21.537Z,61.28
2023-01-29T16:12:53.166Z,61.18
2023-01-29T16:15:34.413Z,61.31
2023-01-29T16:18:05.077Z,61.21
2023-01-29T16:20:45.231Z,61.12
2023-01-29T16:23:22.522Z,60.99
2023-01-29T16:25:51.117Z,60.91
2023-01-29T16:28:19.164Z,60.66
2023-01-29T16:30:47.754Z,60.69
2023-01-29T16:33:17.216Z,60.33
2023-01-29T16:35:51.842Z,60.35
2023-01-29T16:38:31.251Z,60.39
2023-01-29T16:41:06.608Z,60.37
2023-01-29T16:43:42.003Z,60.37
2023-01-29T16:46:31.657Z,60.39
2023-01-29T16:48:59.839Z,60.18
2023-01-29T16:51:37.259Z,60.28
2023-01-29T16:54:12.392Z,60.23
2023-01-29T16:56:43.822Z,60.12
2023-01-29T16:59:21.929Z,60.07
2023-01-29T17:01:50.167Z,59.96
2023-01-29T17:04:18.696Z,59.80
2023-01-29T17:06:49.585Z,59.61
2023-01-29T17:09:23.041Z,59.33
2023-01-29T17:12:14.924Z,59.02
2023-01-29T17:15:04.831Z,58.82
2023-01-29T17:17:49.391Z,58.72
2023-01-29T17:20:18.010Z,58.50
2023-01-29T17:22:47.196Z,58.39
2023-01-29T17:25:17.625Z,58.39
2023-01-29T17:27:51.967Z,58.36
2023-01-29T17:33:29.663Z,58.19
2023-01-29T17:35:58.279Z,58.22
2023-01-29T17:38:26.918Z,58.17
2023-01-29T17:40:59.008Z,58.05
2023-01-29T17:43:31.060Z,57.83
2023-01-29T17:49:19.202Z,57.53
2023-01-29T17:51:58.490Z,57.15
2023-01-29T17:54:40.369Z,56.99
2023-01-29T17:57:09.740Z,56.93
2023-01-29T17:59:43.546Z,56.88
2023-01-29T18:02:29.748Z,56.71
2023-01-29T18:05:18.563Z,56.65
2023-01-29T18:07:52.303Z,56.56
2023-01-29T18:10:21.320Z,56.57
2023-01-29T18:12:49.823Z,56.56
2023-01-29T18:15:18.393Z,56.47
2023-01-29T18:17:48.519Z,56.39
2023-01-29T18:20:19.786Z,56.39
2023-01-29T18:22:48.402Z,56.38
2023-01-29T18:25:17.369Z,56.42
2023-01-29T18:27:47.779Z,56.44
2023-01-29T18:30:16.669Z,56.49
2023-01-29T18:32:45.381Z,56.41
2023-01-29T18:35:14.406Z,56.45
2023-01-29T18:37:43.479Z,56.48
2023-01-29T18:40:20.067Z,56.61
2023-01-29T18:42:49.418Z,56.74
2023-01-29T18:45:19.597Z,56.75
2023-01-29T18:47:48.811Z,56.62
2023-01-29T18:50:17.278Z,56.52
2023-01-29T18:52:45.980Z,56.33
2023-01-29T18:55:14.844Z,56.16
2023-01-29T18:58:28.755Z,56.00
2023-01-29T19:00:32.476Z,56.03
2023-01-29T19:03:00.924Z,56.10
2023-01-29T19:05:29.027Z,56.19
2023-01-29T19:07:57.510Z,56.15
2023-01-29T19:10:27.942Z,56.11
2023-01-29T19:13:02.343Z,55.87
2023-01-29T19:15:33.289Z,55.79
2023-01-29T19:18:01.761Z,55.65
2023-01-29T19:20:29.957Z,55.47
2023-01-29T19:22:58.247Z,55.16
2023-01-29T19:25:28.918Z,55.04
2023-01-29T19:27:56.993Z,54.70
2023-01-29T19:30:25.337Z,54.61
2023-01-29T19:32:53.585Z,54.49
2023-01-29T19:35:22.239Z,54.58
2023-01-29T19:37:50.403Z,54.66
2023-01-29T19:40:19.921Z,54.52
2023-01-29T19:42:48.573Z,54.31
2023-01-29T19:45:16.891Z,54.00
2023-01-29T19:48:04.913Z,53.87
2023-01-29T19:50:34.570Z,53.80
2023-01-29T19:53:02.807Z,53.45
2023-01-29T19:55:31.181Z,53.58
2023-01-29T19:57:59.486Z,53.62
2023-01-29T20:00:35.535Z,53.42
2023-01-29T20:03:04.991Z,53.47
2023-01-29T20:05:36.124Z,53.35
2023-01-29T20:08:04.395Z,53.35
2023-01-29T20:10:36.927Z,53.18
2023-01-29T20:13:06.182Z,53.11
2023-01-29T20:15:37.854Z,52.89
2023-01-29T20:18:11.917Z,52.63
2023-01-29T20:20:51.634Z,52.51
2023-01-29T20:23:37.744Z,52.29
2023-01-29T20:26:14.249Z,52.25
2023-01-29T20:28:51.512Z,52.23
2023-01-29T20:31:30.292Z,52.17
2023-01-29T20:34:03.590Z,52.03
2023-01-29T20:36:40.205Z,51.96
2023-01-29T20:39:18.240Z,51.77
2023-01-29T20:41:57.496Z,51.80
2023-01-29T20:44:26.030Z,51.79
2023-01-29T20:46:54.175Z,51.55
2023-01-29T20:49:22.309Z,51.53
2023-01-29T20:51:50.608Z,51.35
2023-01-29T20:54:18.789Z,51.25
2023-01-29T20:56:50.223Z,51.25
2023-01-29T20:59:19.230Z,51.28
2023-01-29T21:01:47.903Z,51.35
2023-01-29T21:04:16.689Z,51.53
2023-01-29T21:06:44.867Z,51.52
2023-01-29T21:09:14.457Z,51.59
2023-01-29T21:11:45.011Z,51.61
2023-01-29T21:14:14.234Z,51.56
2023-01-29T21:16:42.592Z,51.58
2023-01-29T21:19:13.211Z,51.71
2023-01-29T21:21:41.691Z,51.79
2023-01-29T21:24:13.087Z,51.63
2023-01-29T21:26:41.332Z,51.75
2023-01-29T21:29:11.145Z,51.61
2023-01-29T21:31:39.413Z,51.72
2023-01-29T21:34:08.089Z,51.68
2023-01-29T21:36:36.840Z,51.62
2023-01-29T21:39:16.699Z,51.62
2023-01-29T21:42:04.123Z,51.78
2023-01-29T21:44:33.675Z,51.54
2023-01-29T21:47:12.360Z,51.48
2023-01-29T21:49:41.879Z,51.58
2023-01-29T21:52:11.532Z,51.75
2023-01-29T21:54:40.855Z,51.73
2023-01-29T21:57:12.498Z,51.71
2023-01-29T21:59:40.684Z,51.66
2023-01-29T22:02:17.827Z,51.62
2023-01-29T22:04:46.515Z,51.81
2023-01-29T22:07:14.846Z,51.77
2023-01-29T22:09:42.977Z,51.51
2023-01-29T22:12:11.553Z,51.35
2023-01-29T22:14:42.015Z,51.14
2023-01-29T22:17:10.824Z,51.15
2023-01-29T22:19:39.022Z,51.11
2023-01-29T22:22:07.942Z,50.96
2023-01-29T22:24:36.442Z,51.00
2023-01-29T22:27:04.720Z,50.96
2023-01-29T22:29:33.197Z,50.90
2023-01-29T22:32:01.346Z,50.93
2023-01-29T22:34:30.006Z,50.98
2023-01-29T22:36:58.443Z,50.93
2023-01-29T22:39:26.795Z,51.05
2023-01-29T22:41:54.912Z,51.00
2023-01-29T22:44:23.627Z,50.90
2023-01-29T22:46:52.032Z,50.96
2023-01-29T22:49:20.135Z,51.06
2023-01-29T22:51:48.293Z,51.10
2023-01-29T22:54:16.487Z,51.18
2023-01-29T22:56:44.884Z,51.15
2023-01-29T22:59:12.939Z,51.03
2023-01-29T23:01:41.027Z,51.00
2023-01-29T23:04:12.097Z,50.92
2023-01-29T23:06:40.178Z,50.89
2023-01-29T23:09:08.341Z,50.90
2023-01-29T23:11:36.798Z,50.99
2023-01-29T23:14:07.358Z,50.93
2023-01-29T23:16:35.811Z,50.95
2023-01-29T23:19:04.348Z,51.02
2023-01-29T23:21:33.364Z,50.97
2023-01-29T23:24:01.664Z,51.02
2023-01-29T23:26:49.443Z,50.94
2023-01-29T23:29:17.643Z,50.96
2023-01-29T23:31:46.045Z,51.08
2023-01-29T23:34:14.478Z,51.16
2023-01-29T23:36:42.913Z,51.11
2023-01-29T23:39:11.044Z,51.12
2023-01-29T23:41:39.555Z,51.13
2023-01-29T23:44:09.516Z,51.11
2023-01-29T23:46:37.901Z,51.17
2023-01-29T23:49:06.386Z,51.15
2023-01-29T23:51:38.066Z,51.16
2023-01-29T23:54:06.468Z,51.10
2023-01-29T23:56:34.743Z,51.18
2023-01-29T23:59:03.439Z,51.32
